createdAt,value
2018-02-25T00:02:23.074Z,87.40
2018-02-25T00:07:07.508Z,86.70
2018-02-25T00:11:50.812Z,86.70
2018-02-25T00:16:34.145Z,86.30
2018-02-25T00:21:17.467Z,86.50
2018-02-25T00:26:00.801Z,86.40
2018-02-25T00:30:44.137Z,85.40
2018-02-25T00:35:27.446Z,85.10
2018-02-25T00:40:10.831Z,84.60
2018-02-25T00:44:54.162Z,83.90
2018-02-25T00:49:37.543Z,84.30
2018-02-25T00:54:20.892Z,83.90
2018-02-25T00:59:04.992Z,82.50
2018-02-25T01:03:48.344Z,82.50
2018-02-25T01:08:31.960Z,81.60
2018-02-25T01:13:15.293Z,81.00
2018-02-25T01:17:58.689Z,81.40
2018-02-25T01:22:42.082Z,81.00
2018-02-25T01:27:25.473Z,80.90
2018-02-25T01:32:08.829Z,80.40
2018-02-25T01:36:52.159Z,80.40
2018-02-25T01:41:35.516Z,80.90
2018-02-25T01:46:18.887Z,80.30
2018-02-25T01:51:04.957Z,80.40
2018-02-25T01:55:48.325Z,80.40
2018-02-25T02:00:31.685Z,81.10
2018-02-25T02:05:15.066Z,82.10
2018-02-25T02:09:58.401Z,82.60
2018-02-25T02:14:42.404Z,82.60
2018-02-25T02:19:25.711Z,82.90
2018-02-25T02:24:09.864Z,83.70
2018-02-25T02:28:53.219Z,83.60
2018-02-25T02:33:36.615Z,83.80
2018-02-25T02:38:19.954Z,84.10
2018-02-25T02:43:03.290Z,83.80
2018-02-25T02:47:46.724Z,83.60
2018-02-25T02:52:30.401Z,83.50
2018-02-25T02:57:13.787Z,84.00
2018-02-25T03:01:57.974Z,85.10
2018-02-25T03:06:41.370Z,85.10
2018-02-25T03:11:24.762Z,85.50
2018-02-25T03:16:08.122Z,86.10
2018-02-25T03:20:51.704Z,87.00
2018-02-25T03:25:35.268Z,87.40
2018-02-25T03:30:19.408Z,88.20
2018-02-25T03:35:03.561Z,88.10
2018-02-25T03:39:47.209Z,88.00
2018-02-25T03:44:31.047Z,87.80
2018-02-25T03:49:14.621Z,87.70
2018-02-25T03:53:58.726Z,88.00
2018-02-25T03:58:42.123Z,87.90
2018-02-25T04:03:26.237Z,89.40
2018-02-25T04:08:09.587Z,89.40
2018-02-25T04:12:52.947Z,90.00
2018-02-25T04:17:36.758Z,90.20
2018-02-25T04:22:20.075Z,90.20
2018-02-25T04:27:03.486Z,90.20
2018-02-25T04:31:46.857Z,90.40
2018-02-25T04:36:30.209Z,90.40
2018-02-25T04:41:13.559Z,90.40
2018-02-25T04:45:56.916Z,90.80
2018-02-25T04:50:40.244Z,90.80
2018-02-25T04:55:23.547Z,91.20
2018-02-25T05:00:06.923Z,91.40
2018-02-25T05:04:50.215Z,91.60
2018-02-25T05:09:34.367Z,91.40
2018-02-25T05:14:18.499Z,91.60
2018-02-25T05:19:02.095Z,91.90
2018-02-25T05:23:45.435Z,92.10
2018-02-25T05:28:28.821Z,92.40
2018-02-25T05:33:13.036Z,93.00
2018-02-25T05:37:58.303Z,93.30
2018-02-25T05:42:41.819Z,93.60
2018-02-25T05:47:25.203Z,93.90
2018-02-25T05:52:08.577Z,93.90
2018-02-25T05:56:51.937Z,93.90
2018-02-25T06:01:35.888Z,94.30
2018-02-25T06:06:19.224Z,94.60
2018-02-25T06:11:02.559Z,94.50
2018-02-25T06:15:45.948Z,94.00
2018-02-25T06:20:30.340Z,93.00
2018-02-25T06:25:13.734Z,92.90
2018-02-25T06:29:57.138Z,92.60
2018-02-25T06:34:40.476Z,92.20
2018-02-25T06:39:23.834Z,91.90
2018-02-25T06:44:07.186Z,91.90
2018-02-25T06:48:50.594Z,91.60
2018-02-25T06:53:33.964Z,91.60
2018-02-25T06:58:17.299Z,91.90
2018-02-25T07:03:01.000Z,91.90
2018-02-25T07:07:44.379Z,91.80
2018-02-25T07:12:28.004Z,91.40
2018-02-25T07:17:11.392Z,91.50
2018-02-25T07:21:55.587Z,91.40
2018-02-25T07:26:39.090Z,91.30
2018-02-25T07:31:22.476Z,91.30
2018-02-25T07:36:06.104Z,90.80
2018-02-25T07:40:49.509Z,90.80
2018-02-25T07:45:32.875Z,90.10
2018-02-25T07:50:16.212Z,87.80
2018-02-25T07:55:00.509Z,84.40
2018-02-25T07:59:44.583Z,84.90
2018-02-25T08:04:27.951Z,84.90
2018-02-25T08:09:11.316Z,82.90
2018-02-25T08:13:56.566Z,82.00
2018-02-25T08:18:39.983Z,81.40
2018-02-25T08:23:23.379Z,80.10
2018-02-25T08:28:07.536Z,77.40
2018-02-25T08:32:50.872Z,77.30
2018-02-25T08:37:34.282Z,77.20
2018-02-25T08:42:17.663Z,77.20
2018-02-25T08:47:01.154Z,75.20
2018-02-25T08:51:44.488Z,75.70
2018-02-25T08:56:27.866Z,71.20
2018-02-25T09:01:11.244Z,69.10
2018-02-25T09:05:54.624Z,69.40
2018-02-25T09:10:38.823Z,65.70
2018-02-25T09:15:22.380Z,66.00
2018-02-25T09:20:05.894Z,62.50
2018-02-25T09:24:49.377Z,62.00
2018-02-25T09:29:34.022Z,59.70
2018-02-25T09:34:23.020Z,59.50
2018-02-25T09:39:08.490Z,59.40
2018-02-25T09:44:04.065Z,55.40
2018-02-25T09:48:52.908Z,54.00
2018-02-25T09:53:43.849Z,52.80
2018-02-25T09:58:27.797Z,51.40
2018-02-25T10:03:11.615Z,49.20
2018-02-25T10:07:55.049Z,45.80
2018-02-25T10:12:38.708Z,48.40
2018-02-25T10:17:22.271Z,44.90
2018-02-25T10:22:07.522Z,43.00
2018-02-25T10:26:53.349Z,39.30
2018-02-25T10:31:37.653Z,38.70
2018-02-25T10:36:21.032Z,39.20
2018-02-25T10:41:04.446Z,36.50
2018-02-25T10:45:47.838Z,35.50
2018-02-25T10:50:32.149Z,33.30
2018-02-25T10:55:15.484Z,33.30
2018-02-25T10:59:58.989Z,32.90
2018-02-25T11:04:42.490Z,34.30
2018-02-25T11:09:25.913Z,33.20
2018-02-25T11:14:09.437Z,32.00
2018-02-25T11:18:54.290Z,32.60
2018-02-25T11:23:38.455Z,30.70
2018-02-25T11:28:22.628Z,29.40
2018-02-25T11:33:06.456Z,29.90
2018-02-25T11:37:49.812Z,31.00
2018-02-25T11:42:33.916Z,29.70
2018-02-25T11:47:17.378Z,29.70
2018-02-25T11:52:00.711Z,29.90
2018-02-25T11:56:44.059Z,29.40
2018-02-25T12:01:27.511Z,29.40
2018-02-25T12:06:10.805Z,29.50
2018-02-25T12:10:54.234Z,30.00
2018-02-25T12:15:37.599Z,30.00
2018-02-25T12:20:20.944Z,30.10
2018-02-25T12:25:04.371Z,30.60
2018-02-25T12:29:48.605Z,29.70
2018-02-25T12:34:32.927Z,29.70
2018-02-25T12:39:22.414Z,28.90
2018-02-25T12:44:07.110Z,30.00
2018-02-25T12:54:26.472Z,27.90
2018-02-25T12:59:09.791Z,27.30
2018-02-25T13:03:53.154Z,26.50
2018-02-25T13:08:36.664Z,27.00
2018-02-25T13:13:20.070Z,27.00
2018-02-25T13:18:03.809Z,26.90
2018-02-25T13:22:47.264Z,27.40
2018-02-25T13:27:30.615Z,27.20
2018-02-25T13:32:14.934Z,28.00
2018-02-25T13:36:58.636Z,28.10
2018-02-25T13:41:42.294Z,28.10
2018-02-25T13:46:25.693Z,28.50
2018-02-25T13:51:09.174Z,28.50
2018-02-25T14:00:49.884Z,29.40
2018-02-25T14:05:33.273Z,29.40
2018-02-25T14:10:16.620Z,30.20
2018-02-25T14:14:59.998Z,30.30
2018-02-25T14:19:43.301Z,31.70
2018-02-25T14:24:26.659Z,31.60
2018-02-25T14:29:09.996Z,32.00
2018-02-25T14:33:53.368Z,32.80
2018-02-25T14:38:36.763Z,32.70
2018-02-25T14:43:20.365Z,34.20
2018-02-25T14:48:05.434Z,34.30
2018-02-25T14:52:48.876Z,34.30
2018-02-25T14:57:32.391Z,36.90
2018-02-25T15:02:15.774Z,35.90
2018-02-25T15:06:59.922Z,37.20
2018-02-25T15:11:43.403Z,37.10
2018-02-25T15:16:27.598Z,38.90
2018-02-25T15:21:11.763Z,39.30
2018-02-25T15:25:56.041Z,39.10
2018-02-25T15:30:40.315Z,39.00
2018-02-25T15:35:24.422Z,40.90
2018-02-25T15:40:07.795Z,40.80
2018-02-25T15:44:51.477Z,42.90
2018-02-25T15:49:35.547Z,46.60
2018-02-25T15:54:19.069Z,46.60
2018-02-25T15:59:02.435Z,47.00
2018-02-25T16:03:45.853Z,46.70
2018-02-25T16:08:30.124Z,48.00
2018-02-25T16:13:14.633Z,47.90
2018-02-25T16:17:58.032Z,49.40
2018-02-25T16:22:41.528Z,49.60
2018-02-25T16:27:24.966Z,50.30
2018-02-25T16:32:08.325Z,51.30
2018-02-25T16:36:51.670Z,52.40
2018-02-25T16:41:35.966Z,53.60
2018-02-25T16:46:19.337Z,54.20
2018-02-25T16:51:02.667Z,55.20
2018-02-25T16:55:46.017Z,56.00
2018-02-25T17:00:29.388Z,56.60
2018-02-25T17:05:12.736Z,57.30
2018-02-25T17:09:56.100Z,57.40
2018-02-25T17:14:39.455Z,57.10
2018-02-25T17:19:22.816Z,57.30
2018-02-25T17:24:06.265Z,57.80
2018-02-25T17:28:49.595Z,57.90
2018-02-25T17:33:33.207Z,58.10
2018-02-25T17:38:16.560Z,58.60
2018-02-25T17:42:59.915Z,58.30
2018-02-25T17:47:43.276Z,58.80
2018-02-25T17:52:26.713Z,60.20
2018-02-25T17:57:11.746Z,59.70
2018-02-25T18:01:55.643Z,59.70
2018-02-25T18:06:39.542Z,60.50
2018-02-25T18:11:23.059Z,61.20
2018-02-25T18:16:07.021Z,61.60
2018-02-25T18:20:50.457Z,60.50
2018-02-25T18:25:34.234Z,60.50
2018-02-25T18:30:18.360Z,59.90
2018-02-25T18:35:01.916Z,59.90
2018-02-25T18:39:45.252Z,59.90
2018-02-25T18:44:28.879Z,59.90
2018-02-25T18:49:12.462Z,59.50
2018-02-25T18:53:56.293Z,60.30
2018-02-25T18:58:40.593Z,60.80
2018-02-25T19:03:27.812Z,60.80
2018-02-25T19:08:11.358Z,60.80
2018-02-25T19:12:54.803Z,61.00
2018-02-25T19:17:39.528Z,61.00
2018-02-25T19:22:22.941Z,60.90
2018-02-25T19:27:07.055Z,61.60
2018-02-25T19:31:50.418Z,60.60
2018-02-25T19:36:39.399Z,61.60
2018-02-25T19:41:28.700Z,62.30
2018-02-25T19:46:12.186Z,63.10
2018-02-25T19:50:55.632Z,63.70
2018-02-25T19:55:39.314Z,65.00
2018-02-25T20:00:23.463Z,67.40
2018-02-25T20:05:06.976Z,67.40
2018-02-25T20:09:50.471Z,68.50
2018-02-25T20:14:33.917Z,69.70
2018-02-25T20:19:17.597Z,70.80
2018-02-25T20:24:01.016Z,70.20
2018-02-25T20:28:45.242Z,71.20
2018-02-25T20:33:29.705Z,72.20
2018-02-25T20:38:15.959Z,72.20
2018-02-25T20:43:00.318Z,72.20
2018-02-25T20:47:44.843Z,73.90
2018-02-25T20:52:29.162Z,74.80
2018-02-25T20:57:12.523Z,74.80
2018-02-25T21:01:55.980Z,75.60
2018-02-25T21:06:39.665Z,75.70
2018-02-25T21:11:24.084Z,76.10
2018-02-25T21:16:07.535Z,76.10
2018-02-25T21:20:51.029Z,75.20
2018-02-25T21:25:35.240Z,76.20
2018-02-25T21:30:18.688Z,76.20
2018-02-25T21:35:02.900Z,77.00
2018-02-25T21:39:46.349Z,77.00
2018-02-25T21:44:29.985Z,77.70
2018-02-25T21:49:14.370Z,78.70
2018-02-25T21:53:57.685Z,78.70
2018-02-25T21:58:47.496Z,80.10
2018-02-25T22:03:36.795Z,80.00
2018-02-25T22:08:20.327Z,81.00
2018-02-25T22:13:03.755Z,81.40
2018-02-25T22:17:47.356Z,83.30
2018-02-25T22:22:31.075Z,85.10
2018-02-25T22:27:14.546Z,85.20
2018-02-25T22:31:58.668Z,86.00
2018-02-25T22:36:42.139Z,86.00
2018-02-25T22:41:25.574Z,86.40
2018-02-25T22:46:09.010Z,87.00
2018-02-25T22:50:53.392Z,88.70
2018-02-25T22:55:37.051Z,88.70
2018-02-25T23:00:21.091Z,89.40
2018-02-25T23:05:04.471Z,89.40
2018-02-25T23:09:48.648Z,90.10
2018-02-25T23:14:32.002Z,90.10
2018-02-25T23:19:15.395Z,90.30
2018-02-25T23:23:59.116Z,90.90
2018-02-25T23:28:42.562Z,90.80
2018-02-25T23:33:26.033Z,90.30
2018-02-25T23:38:09.434Z,90.00
2018-02-25T23:42:52.832Z,89.20
2018-02-25T23:47:37.076Z,90.30
2018-02-25T23:52:20.476Z,90.20
2018-02-25T23:57:04.108Z,90.70
